Bonifay, FL (32425)

1:22 AM CST on February 13, 2016 (GMT -0600)
APRSWXNET | | Change Station
CLOSE
Current Station
Personal Weather Station
Location: Caryville, FL
Elevation: 144 ft
Nearby Weather Stations

Elev 144 ft 30.80 °N, 85.70 °W | Updated 28 minutes ago

Clear
Clear
48 °F
Feels Like 48 °F
N
0
Wind Variable Wind from SSE
Gusts 2.0 mph

Today
High -- | Low -- °F
--% Chance of Precip.
Yesterday
High -- | Low -- °F
Precip. -- in
Pressure 30.10 in
Visibility 10.0 miles
Clouds Clear
Windchill 48 °F
Dew Point 40 °F
Humidity 75%
Rainfall in
Snow Depth Not available.
6:25 AM 5:28 PM
Waxing Crescent, 28% visible
METAR K1J0 130658Z AUTO 31006KT 10SM CLR 11/03 A3022 RMK AO2 SLP191 T01110028
Pressure 30.10 in
Visibility 10.0 miles
Clouds Clear
Windchill 48 °F
Dew Point 40 °F
Humidity 75%
Rainfall in
Snow Depth Not available.
6:25 AM 5:28 PM
Waxing Crescent, 28% visible
METAR K1J0 130658Z AUTO 31006KT 10SM CLR 11/03 A3022 RMK AO2 SLP191 T01110028

10-Day Weather Forecast

Almanac

Astronomy

Feb. 13, 2016 Rise Set
Actual Time
Civil Twilight
Nautical Twilight
Astronomical Twilight
Moon
Length of Visible Light
Length of Day
Tomorrow will be .
, % of the Moon is Illuminated

Today's Extremes

State Highs State Lows

Community

WunderPhotos

Upload Photos

1,892,526 photos uploaded!

WunderBlog® & News

Nearby

Air Quality

  Air Quality AQ Index Pollutant
Not available.

Snow Depth

Station Depth Elevation

Earthquake Activity

City Distance Mag. Time & Date
Minimum magnitude displayed is 2.5.

Coastal Water Temperatures

Place Temperature

Stations

Nearby Weather Stations

Station Location Temp. Windchill Dew Point Humidity Wind Precip. Elev Updated Type
                   

Watches & Warnings

There are currently no watches in effect.